Richton Park, IL (60471)

12:04 PM CDT en Abril 27, 2015 (GMT -0500)
Northern Crete IL | | Change Station
CLOSE
Current Station
Estación meteorológica personal
Location: Crete, IL
Altura: 730 ft
Estaciones meteorológicas cercanas

Alt 730 ft 41.47 °N, 87.62 °W | Updated 21 seconds ago

Despejado
Despejado
54.5 ° F
Sensación térmica 54.5 ° F
N
18.3
Viento Variable Viento desde Norte
Gusts 18.3 mph

Hoy
Alta -- | Baja -- ° F
--% Posibilidad de precipitaciones
Ayer
Alta -- | Baja -- ° F
Precip. -- pul
5:53 AM 7:44 PM
Gibosa creciente, 66% visible
Presión 30.13 pul
Visibilidad 10.0 Millas
Nubes Despejado
Punto de rocío 35 ° F
Humedad 48%
Precipitaciones -999.00 pul
Espesor de la nieve No disponible.
UV 10 de una escala de 12
Polen 9.70 de una escala de 12
Calidad del aire No disponible.
Flu Activity Regional
METAR KIGQ 271655Z AUTO 01015G22KT 10SM CLR 10/01 A3013 RMK AO2 T00960006

More Conditions Fewer Conditions

Presión 30.13 pul
Visibilidad 10.0 Millas
Nubes Despejado
Punto de rocío 35 ° F
Humedad 48%
Precipitaciones -999.00 pul
Espesor de la nieve No disponible.
UV 10 de una escala de 12
Polen 9.70 de una escala de 12
Calidad del aire No disponible.
Flu Activity Regional
METAR KIGQ 271655Z AUTO 01015G22KT 10SM CLR 10/01 A3013 RMK AO2 T00960006

More Conditions Fewer Conditions

10-Day Weather Forecast

Almanac

Astronomía

Apr. 27, 2015 Salida Puesta
Hora real
Crepúsculo civil
Crepúsculo náutico
Crepúsculo astronómico
Luna
Horas de luz
Horas de luz
Tomorrow will be .
, % of the Moon is Illuminated

Extremos de hoy

Máximos del estado Bajos del estado

Community

WunderPhotos

Upload Photos

1,817,341 ¡fotos cargadas!

WunderBlogs® & News

Nearby

Calidad del aire

  Calidad del aire Índice AQ Contaminante
Not available.

Grosos de nieve

Estación Profundido Altura

Actividad de terremotos

Ciudad Distance Mag. Tiempo y dato
Magnitud mínima muestra es 2,5.

Temperaturas de aguas costeras

Lugar Temperatura

Stations

Estaciones meteorológicas cercanas

Ubicación de la estación Temp. Vientos helados Punto de rocío Humedad Viento Precip. Alt Actualizado Tipo